Time;durP1;ratioP1;P1;durP2;ratioP2;P2;SDS_P1;SDS_P2;PMS_P1;PMS_P2;Temp;Humidity;BMP_temperature;BMP_pressure;BME280_temperature;BME280_humidity;BME280_pressure;Samples;Min_cycle;Max_cycle;Signal;HPM_P1;HPM_P2
2021/10/15 00:15:32;;;;;;;9.30;8.40;;;;;;;9.63;100.00;100508.50;20985106;27;20631;-74
2021/10/15 00:55:29;;;;;;;6.30;5.80;;;;;;;9.61;100.00;100481.06;20990709;27;20580;-76
2021/10/15 01:05:31;;;;;;;7.07;6.37;;;;;;;9.65;100.00;100477.31;20975227;28;20628;-73
2021/10/15 01:15:35;;;;;;;9.07;8.13;;;;;;;9.73;100.00;100463.50;20974430;28;20226;-75
2021/10/15 01:25:41;;;;;;;10.13;9.13;;;;;;;9.81;100.00;100460.38;20974058;28;20253;-76
2021/10/15 01:35:43;;;;;;;8.97;8.10;;;;;;;9.88;100.00;100457.28;20972857;28;20302;-76
2021/10/15 01:45:47;;;;;;;10.43;9.20;;;;;;;9.94;100.00;100451.59;20971992;28;20243;-72
2021/10/15 02:05:46;;;;;;;11.27;10.13;;;;;;;10.04;100.00;100446.56;21146281;27;21172;-76
2021/10/15 02:15:49;;;;;;;11.30;10.20;;;;;;;10.10;100.00;100432.88;21226473;27;20569;-75
2021/10/15 02:25:52;;;;;;;13.60;11.73;;;;;;;10.14;100.00;100421.06;21227471;27;20250;-75
2021/10/15 02:35:54;;;;;;;16.67;13.70;;;;;;;10.11;100.00;100421.25;21226403;27;20584;-75
2021/10/15 03:05:49;;;;;;;20.50;16.87;;;;;;;10.32;100.00;100403.97;21063667;27;20568;-76
2021/10/15 03:15:52;;;;;;;18.83;15.77;;;;;;;10.40;100.00;100404.34;21058898;27;20218;-76
2021/10/15 03:25:56;;;;;;;17.43;15.50;;;;;;;10.43;100.00;100401.47;21058790;27;20214;-76
2021/10/15 03:35:58;;;;;;;19.07;17.03;;;;;;;10.38;100.00;100392.94;21048128;27;20765;-70
2021/10/15 03:46:02;;;;;;;17.13;15.33;;;;;;;10.40;100.00;100396.34;21055775;27;20580;-75
2021/10/15 03:56:04;;;;;;;16.17;14.57;;;;;;;10.42;100.00;100393.56;21055420;27;20226;-75
2021/10/15 04:06:08;;;;;;;15.87;14.27;;;;;;;10.44;100.00;100392.53;21054969;27;20253;-73
2021/10/15 04:16:10;;;;;;;17.23;15.07;;;;;;;10.51;100.00;100384.97;21003485;27;20238;-74
2021/10/15 04:26:14;;;;;;;14.10;12.80;;;;;;;10.57;100.00;100381.94;20997893;28;20230;-70
2021/10/15 04:46:16;;;;;;;12.80;11.60;;;;;;;10.66;100.00;100375.16;20988271;27;20580;-71
2021/10/15 04:56:18;;;;;;;12.20;11.00;;;;;;;10.69;100.00;100377.63;20967594;28;20675;-72
2021/10/15 05:16:23;;;;;;;14.43;13.03;;;;;;;10.77;100.00;100368.19;20899654;27;20577;-61
2021/10/15 05:26:25;;;;;;;13.40;12.10;;;;;;;10.87;100.00;100363.09;20881701;28;20350;-66
2021/10/15 05:36:29;;;;;;;13.67;12.30;;;;;;;10.99;100.00;100370.31;20879320;28;20223;-64
2021/10/15 05:46:31;;;;;;;12.17;10.97;;;;;;;11.17;100.00;100366.44;20967165;28;20712;-68
2021/10/15 05:56:58;;;;;;;15.80;14.17;;;;;;;11.29;100.00;100355.91;20971452;28;20314;-68
2021/10/15 06:17:21;;;;;;;14.03;12.73;;;;;;;11.53;100.00;100359.59;20903194;28;20231;-64
2021/10/15 06:37:21;;;;;;;14.57;13.27;;;;;;;11.86;100.00;100380.53;21155911;27;20561;-71
2021/10/15 06:47:24;;;;;;;13.30;12.00;;;;;;;12.18;100.00;100364.94;21143140;27;20230;-69
2021/10/15 06:57:28;;;;;;;13.50;12.30;;;;;;;12.46;100.00;100378.06;21142284;27;20304;-69
2021/10/15 07:07:30;;;;;;;13.07;11.77;;;;;;;12.68;100.00;100368.53;21221554;27;20218;-68
2021/10/15 07:17:34;;;;;;;12.93;11.63;;;;;;;12.93;100.00;100377.31;21207439;27;20249;-70
2021/10/15 07:37:36;;;;;;;34.10;14.90;;;;;;;13.47;100.00;100410.91;21067628;27;20574;-68
2021/10/15 07:57:35;;;;;;;11.37;10.27;;;;;;;13.70;100.00;100381.41;21022382;27;20566;-68
2021/10/15 08:07:37;;;;;;;10.40;9.40;;;;;;;13.97;100.00;100378.44;21059252;27;20225;-68
2021/10/15 08:17:41;;;;;;;9.60;8.73;;;;;;;14.46;100.00;100379.13;21058096;27;20218;-69
2021/10/15 08:27:44;;;;;;;9.70;8.70;;;;;;;14.76;100.00;100361.41;21057251;27;20234;-67
2021/10/15 08:47:44;;;;;;;8.50;7.73;;;;;;;15.39;100.00;100365.16;20898313;28;20652;-71
2021/10/15 08:57:48;;;;;;;9.27;8.37;;;;;;;15.61;100.00;100364.22;20874724;28;20283;-69
2021/10/15 09:07:55;;;;;;;8.60;7.90;;;;;;;15.88;100.00;100350.25;20891742;28;20321;-69
2021/10/15 09:17:58;;;;;;;12.60;8.40;;;;;;;16.35;100.00;100331.81;20890792;28;20713;-63
2021/10/15 09:28:02;;;;;;;7.80;7.07;;;;;;;16.53;100.00;100335.59;20890093;28;20232;-68
2021/10/15 09:38:06;;;;;;;10.07;8.27;;;;;;;16.44;100.00;100325.59;20888805;28;20267;-66
2021/10/15 09:48:24;;;;;;;9.03;8.23;;;;;;;16.16;100.00;100327.19;20888440;28;20219;-69
2021/10/15 09:58:28;;;;;;;9.60;8.60;;;;;;;16.41;100.00;100313.28;20836004;28;20232;-67
2021/10/15 10:08:31;;;;;;;8.43;7.73;;;;;;;16.65;100.00;100318.38;20832038;28;20249;-65
2021/10/15 10:18:39;;;;;;;8.47;7.77;;;;;;;17.14;100.00;100308.53;20831051;28;20311;-67
2021/10/15 10:28:43;;;;;;;8.17;7.37;;;;;;;16.87;100.00;100291.19;20830534;28;20216;-67
2021/10/15 10:38:46;;;;;;;8.60;7.70;;;;;;;16.75;100.00;100291.44;20829682;28;20282;-66
2021/10/15 10:49:19;;;;;;;18.50;9.93;;;;;;;16.49;100.00;100291.03;20828854;28;20721;-68
2021/10/15 10:59:31;;;;;;;8.37;7.43;;;;;;;16.88;100.00;100297.41;20827757;28;20240;-68
2021/10/15 11:09:38;;;;;;;8.47;7.77;;;;;;;17.07;100.00;100275.88;20825865;28;20223;-68
2021/10/15 11:19:40;;;;;;;8.20;7.50;;;;;;;17.59;100.00;100250.28;20826160;28;20239;-68
2021/10/15 11:29:52;;;;;;;7.83;7.23;;;;;;;17.82;100.00;100244.56;20825647;28;20228;-66
2021/10/15 11:40:14;;;;;;;7.10;6.50;;;;;;;18.16;90.38;100232.22;20824472;28;20273;-68
2021/10/15 11:50:32;;;;;;;6.47;5.87;;;;;;;18.50;86.52;100234.31;20823946;28;20325;-67
2021/10/15 12:00:35;;;;;;;6.80;6.20;;;;;;;18.81;100.00;100230.31;20823372;28;20637;-65
2021/10/15 12:10:39;;;;;;;6.40;5.90;;;;;;;18.59;100.00;100201.88;20822831;28;20289;-65
2021/10/15 12:20:41;;;;;;;6.27;5.77;;;;;;;18.10;100.00;100195.00;20821937;28;20227;-65
2021/10/15 12:30:44;;;;;;;5.97;5.47;;;;;;;18.27;93.28;100187.94;20821934;28;20215;-67
2021/10/15 12:40:47;;;;;;;5.37;4.97;;;;;;;17.68;100.00;100199.16;20821175;28;20260;-68
2021/10/15 12:51:05;;;;;;;5.50;5.10;;;;;;;17.48;93.99;100188.38;20820844;28;20304;-66
2021/10/15 13:01:08;;;;;;;5.30;4.90;;;;;;;17.53;100.00;100164.50;20820175;28;20235;-67
2021/10/15 13:11:12;;;;;;;6.77;6.03;;;;;;;17.33;100.00;100157.47;20820062;28;20232;-68
2021/10/15 13:21:14;;;;;;;6.17;5.57;;;;;;;16.74;100.00;100152.28;20819772;28;20228;-68
2021/10/15 13:31:18;;;;;;;6.33;5.73;;;;;;;16.34;100.00;100153.22;20830329;28;20728;-68
2021/10/15 13:41:23;;;;;;;6.93;6.33;;;;;;;16.18;100.00;100142.97;20833830;28;20239;-67
2021/10/15 13:51:27;;;;;;;6.63;6.03;;;;;;;15.94;100.00;100145.19;20815108;28;20220;-68
2021/10/15 14:01:33;;;;;;;6.73;6.23;;;;;;;15.53;100.00;100139.91;20832084;28;20227;-66
2021/10/15 14:21:33;;;;;;;6.77;6.17;;;;;;;15.05;100.00;100140.47;21068197;27;20638;-70
2021/10/15 14:31:35;;;;;;;6.53;6.03;;;;;;;14.88;100.00;100141.06;21058707;27;20223;-70
2021/10/15 14:41:39;;;;;;;5.60;5.20;;;;;;;14.77;100.00;100137.44;21056577;27;20589;-71
2021/10/15 14:51:42;;;;;;;6.60;6.10;;;;;;;14.54;100.00;100119.75;21057515;27;20226;-70
2021/10/15 15:01:45;;;;;;;6.27;5.77;;;;;;;14.32;100.00;100128.69;21057462;27;20249;-70
2021/10/15 15:11:48;;;;;;;6.40;5.90;;;;;;;14.14;100.00;100132.03;21038313;27;20225;-67
2021/10/15 15:21:53;;;;;;;6.53;5.80;;;;;;;13.93;100.00;100124.75;21054104;27;20222;-68
2021/10/15 15:31:55;;;;;;;5.73;5.23;;;;;;;13.73;100.00;100132.72;21003594;27;20234;-68
2021/10/15 15:51:58;;;;;;;6.90;6.30;;;;;;;13.39;100.00;100145.28;21059966;27;20956;-66
2021/10/15 16:02:01;;;;;;;7.63;6.00;;;;;;;13.27;100.00;100141.75;21057406;28;20299;-71
2021/10/15 16:12:05;;;;;;;7.17;6.57;;;;;;;13.17;100.00;100146.94;21023480;28;20224;-67
2021/10/15 16:22:07;;;;;;;6.67;6.17;;;;;;;13.07;100.00;100145.91;21044133;28;20228;-68
2021/10/15 16:32:12;;;;;;;8.23;7.53;;;;;;;12.76;100.00;100130.50;21021842;28;20789;-64
2021/10/15 16:42:14;;;;;;;7.17;6.57;;;;;;;12.48;100.00;100143.28;21043951;28;20229;-69
2021/10/15 16:52:18;;;;;;;7.37;6.43;;;;;;;12.23;100.00;100138.06;21027410;28;20389;-67
2021/10/15 17:02:20;;;;;;;6.20;5.70;;;;;;;12.11;100.00;100144.31;20986861;28;20326;-70
2021/10/15 17:12:24;;;;;;;7.07;6.47;;;;;;;11.95;100.00;100138.41;20973910;28;20821;-64
2021/10/15 17:32:33;;;;;;;7.13;6.53;;;;;;;11.19;100.00;100118.81;21082193;27;20574;-71
2021/10/15 17:42:35;;;;;;;6.30;5.70;;;;;;;11.06;100.00;100120.63;21027524;28;20725;-66
2021/10/15 17:52:40;;;;;;;7.83;7.10;;;;;;;11.31;100.00;100109.09;21128875;28;20309;-67
2021/10/15 18:02:44;;;;;;;7.30;6.70;;;;;;;11.41;100.00;100109.28;21100579;28;20311;-68
2021/10/15 18:12:48;;;;;;;7.90;7.20;;;;;;;11.19;100.00;100086.75;21125655;28;20226;-67
2021/10/15 18:32:49;;;;;;;6.80;6.20;;;;;;;10.86;100.00;100088.25;20996113;27;20637;-68
2021/10/15 18:42:51;;;;;;;6.40;5.80;;;;;;;11.14;100.00;100090.72;21031852;27;20226;-66
2021/10/15 18:52:55;;;;;;;7.90;7.13;;;;;;;10.94;100.00;100094.78;21034127;27;20264;-68
2021/10/15 19:22:52;;;;;;;8.03;7.23;;;;;;;11.33;100.00;100084.94;21079987;27;1349665;-66
2021/10/15 19:32:54;;;;;;;8.33;7.53;;;;;;;11.75;100.00;100089.88;21106940;28;20312;-69
2021/10/15 19:42:58;;;;;;;8.03;7.23;;;;;;;12.08;100.00;100088.34;21129384;28;20225;-67
2021/10/15 19:53:00;;;;;;;8.87;8.17;;;;;;;12.31;100.00;100086.69;21105582;28;20227;-68
2021/10/15 20:03:04;;;;;;;8.07;7.30;;;;;;;12.44;100.00;100093.63;21040441;28;20226;-67
2021/10/15 20:13:06;;;;;;;9.30;8.40;;;;;;;12.44;100.00;100106.16;21059056;28;20474;-67
2021/10/15 20:33:07;;;;;;;8.77;8.00;;;;;;;11.73;100.00;100166.63;21055685;27;20580;-66
2021/10/15 20:43:09;;;;;;;6.23;5.70;;;;;;;11.45;100.00;100193.59;21032727;27;20214;-66
2021/10/15 20:53:13;;;;;;;5.17;4.60;;;;;;;11.25;100.00;100202.97;21054318;27;20218;-65
2021/10/15 21:03:15;;;;;;;4.33;3.00;;;;;;;11.03;100.00;100218.78;21057126;27;20245;-67
2021/10/15 21:13:19;;;;;;;2.50;2.20;;;;;;;10.72;100.00;100212.84;21056723;27;20233;-66
2021/10/15 21:23:21;;;;;;;2.47;2.27;;;;;;;10.35;100.00;100253.56;21055798;27;20253;-67
2021/10/15 21:43:23;;;;;;;4.07;3.77;;;;;;;9.96;100.00;100275.56;20990313;27;20575;-67
2021/10/15 21:53:26;;;;;;;5.00;4.60;;;;;;;9.87;100.00;100274.31;21058584;27;20221;-66
2021/10/15 22:03:29;;;;;;;4.40;4.10;;;;;;;9.75;100.00;100275.94;21058139;27;20236;-66
2021/10/15 22:13:32;;;;;;;4.17;3.80;;;;;;;9.24;100.00;100273.75;21055854;27;20237;-67
2021/10/15 22:23:36;;;;;;;4.53;3.53;;;;;;;8.88;100.00;100274.97;21056099;27;20298;-66
2021/10/15 22:33:38;;;;;;;5.17;2.63;;;;;;;8.76;100.00;100307.63;21055760;27;20253;-66
2021/10/15 22:43:42;;;;;;;3.53;2.67;;;;;;;8.92;100.00;100303.13;21054458;27;20226;-66
2021/10/15 22:53:44;;;;;;;4.90;3.10;;;;;;;9.01;100.00;100310.59;21003207;27;20238;-67
2021/10/15 23:03:48;;;;;;;5.83;3.20;;;;;;;9.05;100.00;100321.06;20997627;28;20221;-67
2021/10/15 23:13:50;;;;;;;5.73;3.73;;;;;;;9.07;100.00;100327.13;21012167;28;20254;-64
2021/10/15 23:23:54;;;;;;;3.97;3.10;;;;;;;9.07;100.00;100345.75;20995898;28;20234;-67
2021/10/15 23:33:56;;;;;;;4.23;3.53;;;;;;;9.12;100.00;100360.53;20995284;28;20241;-67
2021/10/15 23:44:00;;;;;;;6.83;3.03;;;;;;;9.22;100.00;100366.19;20994552;28;20256;-67
2021/10/15 23:54:02;;;;;;;4.03;3.10;;;;;;;9.24;100.00;100375.81;20910502;28;20724;-65
